createdAt,value
2024-05-09T00:02:20.774Z,99.90
2024-05-09T00:07:26.012Z,99.90
2024-05-09T00:12:31.284Z,99.90
2024-05-09T00:17:36.825Z,99.90
2024-05-09T00:22:42.486Z,99.90
2024-05-09T00:27:47.830Z,99.90
2024-05-09T00:32:53.391Z,99.90
2024-05-09T00:37:58.807Z,99.90
2024-05-09T00:43:04.028Z,99.90
2024-05-09T00:48:12.264Z,99.90
2024-05-09T00:53:19.375Z,99.90
2024-05-09T00:58:27.396Z,99.90
2024-05-09T01:03:32.976Z,99.90
2024-05-09T01:08:38.947Z,99.90
2024-05-09T01:13:46.023Z,99.90
2024-05-09T01:18:51.525Z,99.90
2024-05-09T01:23:56.926Z,99.90
2024-05-09T01:29:02.158Z,99.90
2024-05-09T01:34:07.625Z,99.90
2024-05-09T01:39:12.917Z,99.90
2024-05-09T01:44:18.316Z,99.90
2024-05-09T01:49:23.886Z,99.90
2024-05-09T01:54:30.008Z,99.90
2024-05-09T01:59:35.557Z,99.90
2024-05-09T02:04:40.996Z,99.90
2024-05-09T02:09:46.552Z,99.90
2024-05-09T02:14:52.934Z,99.90
2024-05-09T02:19:58.333Z,99.90
2024-05-09T02:25:03.522Z,99.90
2024-05-09T02:30:18.762Z,99.90
2024-05-09T02:35:17.986Z,99.90
2024-05-09T02:40:33.028Z,99.90
2024-05-09T02:45:30.040Z,99.90
2024-05-09T02:50:39.118Z,99.90
2024-05-09T02:55:43.580Z,99.90
2024-05-09T03:00:49.212Z,99.90
2024-05-09T03:05:54.585Z,99.90
2024-05-09T03:10:59.959Z,99.90
2024-05-09T03:16:05.370Z,99.90
2024-05-09T03:21:10.804Z,99.90
2024-05-09T03:26:18.258Z,99.90
2024-05-09T03:31:23.597Z,99.90
2024-05-09T03:36:28.842Z,99.90
2024-05-09T03:41:34.042Z,99.90
2024-05-09T03:46:40.457Z,99.90
2024-05-09T03:51:45.776Z,99.90
2024-05-09T03:56:52.744Z,99.90
2024-05-09T04:01:58.173Z,99.90
2024-05-09T04:07:04.075Z,99.90
2024-05-09T04:12:09.624Z,99.90
2024-05-09T04:17:17.424Z,99.90
2024-05-09T04:22:22.777Z,99.90
2024-05-09T04:27:28.062Z,99.90
2024-05-09T04:32:34.439Z,99.90
2024-05-09T04:37:39.787Z,99.90
2024-05-09T04:42:45.052Z,99.90
2024-05-09T04:47:50.422Z,99.90
2024-05-09T04:52:56.099Z,99.90
2024-05-09T04:58:02.027Z,99.90
2024-05-09T05:03:13.971Z,99.90
2024-05-09T05:08:19.571Z,99.90
2024-05-09T05:13:25.991Z,99.90
2024-05-09T05:18:31.389Z,99.90
2024-05-09T05:23:39.582Z,99.90
2024-05-09T05:28:45.097Z,99.90
2024-05-09T05:33:50.499Z,99.90
2024-05-09T05:38:57.256Z,99.90
2024-05-09T05:44:02.644Z,99.90
2024-05-09T05:49:08.244Z,99.90
2024-05-09T05:54:13.728Z,99.90
2024-05-09T05:59:19.077Z,99.90
2024-05-09T06:04:24.488Z,99.90
2024-05-09T06:09:29.935Z,99.90
2024-05-09T06:14:35.186Z,99.90
2024-05-09T06:19:40.919Z,99.90
2024-05-09T06:24:46.408Z,99.90
2024-05-09T06:29:51.770Z,99.90
2024-05-09T06:34:57.329Z,99.90
2024-05-09T06:40:05.533Z,99.90
2024-05-09T06:45:10.497Z,96.60
2024-05-09T06:50:24.011Z,94.30
2024-05-09T06:55:27.646Z,94.00
2024-05-09T07:00:39.666Z,93.20
2024-05-09T07:05:44.620Z,91.30
2024-05-09T07:10:52.792Z,90.90
2024-05-09T07:15:58.735Z,89.20
2024-05-09T07:21:04.230Z,83.70
2024-05-09T07:26:09.707Z,86.80
2024-05-09T07:31:15.821Z,78.20
2024-05-09T07:36:21.151Z,73.90
2024-05-09T07:41:27.421Z,68.10
2024-05-09T07:56:49.483Z,65.00
2024-05-09T08:01:55.317Z,64.20
2024-05-09T08:07:00.763Z,61.70
2024-05-09T08:12:09.168Z,57.20
2024-05-09T08:17:14.553Z,52.10
2024-05-09T08:22:19.907Z,54.30
2024-05-09T08:27:27.038Z,53.60
2024-05-09T08:32:34.151Z,51.50
2024-05-09T08:37:40.698Z,51.60
2024-05-09T08:42:53.460Z,54.40
2024-05-09T08:48:02.830Z,56.50
2024-05-09T08:53:09.531Z,56.50
2024-05-09T08:58:20.248Z,56.60
2024-05-09T09:03:28.705Z,58.60
2024-05-09T09:08:34.272Z,55.50
2024-05-09T09:13:42.023Z,56.40
2024-05-09T09:18:47.763Z,52.30
2024-05-09T09:23:53.583Z,54.80
2024-05-09T09:29:03.557Z,55.20
2024-05-09T09:34:10.444Z,55.10
2024-05-09T09:39:19.223Z,53.30
2024-05-09T09:44:24.598Z,53.10
2024-05-09T09:49:33.518Z,52.10
2024-05-09T09:54:40.302Z,53.30
2024-05-09T09:59:50.169Z,55.50
2024-05-09T10:04:56.941Z,53.70
2024-05-09T10:10:07.089Z,56.60
2024-05-09T10:15:14.405Z,57.00
2024-05-09T10:20:28.181Z,56.80
2024-05-09T10:25:32.484Z,52.80
2024-05-09T10:30:48.994Z,52.30
2024-05-09T10:35:55.977Z,50.80
2024-05-09T10:41:05.063Z,51.30
2024-05-09T10:46:11.890Z,52.40
2024-05-09T10:51:20.160Z,51.00
2024-05-09T10:56:29.056Z,50.30
2024-05-09T11:01:44.098Z,51.30
2024-05-09T11:06:52.123Z,48.90
2024-05-09T11:12:02.384Z,49.40
2024-05-09T11:17:12.342Z,49.00
2024-05-09T11:22:18.832Z,48.60
2024-05-09T11:27:25.178Z,49.80
2024-05-09T11:32:34.459Z,49.50
2024-05-09T11:37:42.207Z,47.20
2024-05-09T11:42:53.142Z,49.70
2024-05-09T11:47:57.067Z,49.40
2024-05-09T11:53:02.779Z,45.20
2024-05-09T11:58:13.094Z,47.00
2024-05-09T12:03:25.267Z,45.70
2024-05-09T12:08:56.687Z,48.50
2024-05-09T12:13:57.415Z,50.20
2024-05-09T12:19:03.042Z,46.90
2024-05-09T12:24:10.146Z,47.10
2024-05-09T12:29:15.737Z,46.20
2024-05-09T12:34:21.132Z,44.80
2024-05-09T12:39:31.961Z,46.00
2024-05-09T12:44:38.351Z,48.50
2024-05-09T12:49:44.128Z,46.10
2024-05-09T12:54:49.596Z,46.80
2024-05-09T12:59:55.021Z,45.40
2024-05-09T13:05:00.531Z,47.10
2024-05-09T13:10:13.780Z,48.50
2024-05-09T13:15:16.178Z,46.00
2024-05-09T13:20:35.192Z,45.40
2024-05-09T13:25:41.391Z,46.00
2024-05-09T13:30:48.075Z,49.00
2024-05-09T13:35:59.083Z,49.00
2024-05-09T13:46:32.937Z,47.80
2024-05-09T13:51:43.190Z,46.70
2024-05-09T13:56:49.757Z,48.10
2024-05-09T14:01:58.852Z,46.30
2024-05-09T14:07:05.981Z,46.10
2024-05-09T14:12:19.850Z,45.90
2024-05-09T14:17:22.311Z,46.40
2024-05-09T14:22:30.687Z,45.40
2024-05-09T14:27:40.886Z,45.40
2024-05-09T14:32:52.376Z,46.60
2024-05-09T14:38:06.501Z,45.20
2024-05-09T14:43:16.246Z,46.90
2024-05-09T14:48:27.879Z,45.60
2024-05-09T14:53:33.826Z,44.90
2024-05-09T14:58:39.326Z,46.30
2024-05-09T15:03:46.136Z,47.20
2024-05-09T15:09:03.279Z,45.50
2024-05-09T15:14:20.754Z,46.90
2024-05-09T15:19:45.779Z,46.90
2024-05-09T15:24:58.055Z,46.40
2024-05-09T15:30:06.860Z,47.00
2024-05-09T15:40:41.578Z,47.40
2024-05-09T15:45:49.183Z,47.70
2024-05-09T15:51:00.943Z,47.80
2024-05-09T15:56:28.675Z,47.00
2024-05-09T16:01:41.559Z,48.00
2024-05-09T16:06:49.600Z,48.90
2024-05-09T16:12:14.341Z,49.10
2024-05-09T16:17:14.637Z,48.80
2024-05-09T16:22:25.036Z,50.30
2024-05-09T16:27:37.736Z,50.70
2024-05-09T16:32:47.248Z,50.30
2024-05-09T16:37:52.724Z,50.30
2024-05-09T16:42:58.643Z,49.90
2024-05-09T16:48:07.970Z,51.10
2024-05-09T16:53:16.750Z,51.00
2024-05-09T16:58:25.189Z,51.40
2024-05-09T17:03:35.711Z,51.70
2024-05-09T17:08:55.467Z,52.30
2024-05-09T17:14:00.536Z,53.10
2024-05-09T17:19:06.854Z,53.60
2024-05-09T17:24:12.168Z,54.10
2024-05-09T17:29:21.576Z,55.10
2024-05-09T17:34:27.263Z,55.20
2024-05-09T17:39:34.709Z,55.50
2024-05-09T17:44:40.193Z,57.90
2024-05-09T17:49:45.668Z,60.40
2024-05-09T17:54:52.496Z,62.60
2024-05-09T18:00:00.644Z,65.10
2024-05-09T18:05:08.949Z,68.00
2024-05-09T18:10:22.566Z,69.50
2024-05-09T18:15:23.581Z,71.30
2024-05-09T18:20:40.292Z,71.70
2024-05-09T18:25:39.810Z,72.90
2024-05-09T18:30:45.341Z,73.50
2024-05-09T18:35:52.166Z,75.50
2024-05-09T18:40:57.933Z,76.30
2024-05-09T18:46:14.719Z,77.10
2024-05-09T18:51:22.914Z,79.00
2024-05-09T18:56:30.832Z,79.90
2024-05-09T19:01:44.842Z,81.00
2024-05-09T19:06:54.123Z,84.40
2024-05-09T19:12:02.333Z,85.20
2024-05-09T19:17:17.514Z,86.20
2024-05-09T19:22:24.145Z,87.00
2024-05-09T19:27:30.165Z,89.10
2024-05-09T19:32:35.797Z,90.30
2024-05-09T19:37:43.903Z,90.90
2024-05-09T19:42:49.590Z,91.30
2024-05-09T19:47:55.113Z,92.00
2024-05-09T19:53:00.804Z,93.40
2024-05-09T19:58:09.144Z,94.80
2024-05-09T20:03:16.318Z,95.90
2024-05-09T20:08:22.959Z,97.00
2024-05-09T20:13:28.510Z,98.30
2024-05-09T20:18:34.209Z,99.20
2024-05-09T20:23:39.618Z,99.90
2024-05-09T20:28:46.500Z,99.90
2024-05-09T20:33:52.044Z,99.90
2024-05-09T20:38:58.453Z,99.90
2024-05-09T20:44:09.537Z,99.90
2024-05-09T20:49:18.442Z,99.90
2024-05-09T20:54:25.090Z,99.90
2024-05-09T20:59:31.005Z,99.90
2024-05-09T21:04:46.243Z,99.90
2024-05-09T21:09:51.852Z,99.90
2024-05-09T21:14:57.887Z,99.90
2024-05-09T21:20:17.029Z,99.90
2024-05-09T21:25:19.245Z,99.90
2024-05-09T21:30:32.728Z,99.90
2024-05-09T21:35:37.388Z,99.90
2024-05-09T21:40:46.443Z,99.90
2024-05-09T21:45:53.343Z,99.90
2024-05-09T21:50:58.724Z,99.90
2024-05-09T21:56:06.515Z,99.90
2024-05-09T22:01:14.602Z,99.90
2024-05-09T22:06:23.476Z,99.90
2024-05-09T22:11:32.044Z,99.90
2024-05-09T22:16:42.198Z,99.90
2024-05-09T22:21:47.730Z,99.90
2024-05-09T22:26:55.223Z,99.90
2024-05-09T22:32:00.510Z,99.90
2024-05-09T22:37:22.543Z,99.90
2024-05-09T22:42:24.852Z,99.90
2024-05-09T22:47:30.470Z,99.90
2024-05-09T22:52:37.545Z,99.90
2024-05-09T22:57:44.843Z,99.90
2024-05-09T23:02:50.153Z,99.90
2024-05-09T23:07:55.511Z,99.90
2024-05-09T23:13:00.912Z,99.90
2024-05-09T23:18:08.364Z,99.90
2024-05-09T23:23:15.614Z,99.90
2024-05-09T23:28:24.690Z,99.90
2024-05-09T23:33:30.416Z,99.90
2024-05-09T23:38:36.911Z,99.90
2024-05-09T23:43:42.237Z,99.90
2024-05-09T23:48:48.504Z,99.90
2024-05-09T23:53:54.098Z,99.90
2024-05-09T23:59:01.078Z,99.90
